x

8413320 - Bar Harbor, Me (atgm1) Weather Station

8:30 - Sun 22nd Jan 2017 All times are EST. -5 hours from GMT.

  • Wind
    5mph, 6mph gusts
  • Sea Temp 38°f
  • Aire Temp 34°f
  • Sea Pressure 1010.7mb
  • 8413320 - Bar Harbor, Me
  • 8413320 - Bar Harbor, Me

More Historic Weather Station data

Upgrade to MSW Pro to gain access to the past 30 days of data for over 8000 Wavebouys and Weather Stations around the globe.

Join Pro

Comparision Forecast

View Surf forecast
   
dom 01/22 8:30 5 6 mph 1010.7mb 38f 34f
8:24 5 6 mph 1010.5mb 38f 34f
8:18 5 6 mph 1010.4mb 38f 34f
8:12 3 6 mph 1010.2mb 38f 34f
8:06 3 6 mph 1010.2mb 38f 34f
8:00 5 7 mph 1010mb 38f 34f
7:54 3 8 mph 1009.9mb 38f 34f
7:48 3 8 mph 1009.8mb 38f 34f
7:42 5 7 mph 1009.5mb 38f 34f
7:36 3 7 mph 1009.4mb 38f 34f
7:30 2 3 mph 1009.2mb 38f 34f
7:24 3 7 mph 1009.1mb 38f 34f
7:18 6 7 mph 1009mb 38f 34f
7:12 2 8 mph 1008.9mb 38f 34f
7:06 6 10 mph 1008.8mb 37f 34f
7:00 6 10 mph 1008.7mb 37f 34f
6:54 7 11 mph 1008.7mb 37f 34f
6:48 7 11 mph 1008.7mb 37f 34f
6:42 6 11 mph 1008.5mb 38f 34f
6:36 6 11 mph 1008.4mb 37f 34f
6:30 5 9 mph 1008.5mb 38f 34f
6:24 6 9 mph 1008.5mb 38f 34f
6:18 6 9 mph 1008.3mb 37f 34f
6:12 6 9 mph 1008.3mb 38f 34f
6:06 6 8 mph 1008.4mb 38f 34f
6:00 6 8 mph 1008.5mb 38f 34f
5:54 6 8 mph 1008.6mb 38f 34f
5:48 6 10 mph 1008.5mb 38f -
5:42 6 8 mph 1008.4mb 38f 34f
5:36 5 7 mph 1008.3mb 38f 34f
5:30 6 8 mph 1008.3mb 38f 34f
5:24 6 8 mph 1008.4mb 38f 34f
5:18 5 8 mph 1008.2mb 38f 34f
5:12 3 8 mph 1008.1mb 38f 34f
5:06 3 6 mph 1008.1mb 38f 34f
5:00 3 6 mph 1008mb 38f 34f
4:54 5 6 mph 1007.8mb 38f 34f
4:48 5 7 mph 1007.8mb 38f 34f
4:42 5 8 mph 1007.8mb 38f 34f
4:36 7 9 mph 1007.8mb 38f 34f
4:30 6 8 mph 1007.9mb 38f 34f
4:24 6 8 mph 1007.9mb 38f 34f
4:18 6 8 mph 1007.8mb 38f -
4:12 7 8 mph 1007.6mb 38f 34f
4:06 8 9 mph 1007.6mb 38f 34f
4:00 6 7 mph 1007.5mb 38f 34f
3:54 6 7 mph 1007.4mb 38f 34f
3:48 6 7 mph 1007.4mb 38f 34f
3:42 6 8 mph 1007.2mb 38f 34f
3:36 6 9 mph 1007.3mb 38f 34f
3:30 6 9 mph 1007.3mb 38f 34f
3:24 9 10 mph 1007.3mb 38f 34f
3:18 9 10 mph 1007.3mb 38f -
3:12 9 10 mph 1007.4mb 38f 35f
3:06 7 9 mph 1007.3mb 38f 35f
3:00 7 9 mph 1007.4mb 38f 35f
2:54 3 6 mph 1007.4mb 38f 35f
2:48 5 7 mph 1007.4mb 38f 35f
2:42 5 7 mph 1007.2mb 38f 35f
2:36 6 7 mph 1007.1mb 38f 35f
2:30 6 7 mph 1007.1mb 38f 36f
2:24 5 6 mph 1007.1mb 38f 36f
2:18 5 6 mph 1007.1mb 38f 36f
2:12 5 6 mph 1007.2mb 38f 36f
2:06 1 2 mph 1007mb 38f 36f
2:00 1 2 mph 1007mb 38f 36f
1:54 2 5 mph 1007.2mb 38f 36f
1:48 5 6 mph 1007.1mb 38f -
1:42 5 6 mph 1007.2mb 38f -
1:36 6 7 mph 1007.3mb 38f -
1:30 6 7 mph 1007.2mb 38f 36f
1:24 5 6 mph 1007.2mb 38f 36f
1:18 6 7 mph 1007.1mb 38f -
1:12 6 8 mph 1006.9mb 38f 36f
1:06 6 9 mph 1006.7mb 38f 37f
1:00 6 8 mph 1006.7mb 38f 37f
12:54 7 9 mph 1006.6mb 38f 37f
12:48 7 9 mph 1006.6mb 38f 37f
12:42 8 9 mph 1006.4mb 38f 37f
12:36 5 6 mph 1006.3mb 38f 37f
12:30 5
mph
1006.2mb 38f 37f
12:24 5
mph
1006.1mb 38f 37f
12:18 2 5 mph 1006.2mb 38f -
12:12 3 5 mph 1006.2mb 38f 37f
12:06 3 5 mph 1006.1mb 38f 37f
12:00 2
mph
1006mb 38f 37f
sáb 01/21 11:54 2
mph
1006.1mb 38f 38f
11:48 2 3 mph 1006.3mb 38f 38f
11:42 2 5 mph 1006.5mb 38f 37f
11:36 3 5 mph 1006.4mb 38f 38f
11:24 3 5 mph 1006.4mb 38f 38f
11:18 3 5 mph 1006.4mb 38f 38f
11:12 3 5 mph 1006.3mb 38f 37f
11:06 3 5 mph 1006.3mb 38f 37f
11:00 3 5 mph 1006.2mb 38f 37f
10:54 3
mph
1006mb 38f 37f
10:48 1 3 mph 1006.1mb 38f 37f
10:42 1 3 mph 1006.2mb 38f 37f
10:36 2 3 mph 1006mb 38f 37f
10:30 3
mph
1005.9mb 38f 37f
10:24 3
mph
1005.7mb 38f 37f
10:18  -  mph 1005.7mb 38f 37f
10:12 2 5 mph 1005.7mb 38f 37f
10:06 3 6 mph 1005.7mb 38f 37f
10:00 5 7 mph 1005.8mb 38f 37f
9:54 6 7 mph 1006mb 38f 37f
9:48 6 7 mph 1006.1mb 38f 37f
9:42 6 7 mph 1006.2mb 38f 37f
9:36 7
mph
1006.2mb 38f 37f
9:30 5
mph
1006.2mb 38f 38f
9:24 5
mph
1006.1mb 38f 38f
9:18 1 3 mph 1006.1mb 38f 38f
9:12 2 3 mph 1006mb 38f 38f
9:06 2 3 mph 1005.9mb 38f 38f
9:00 2 3 mph 1006mb 38f 38f
8:54  -  2 mph 1006.2mb 38f 38f
8:48 1 2 mph 1006.2mb 38f 38f
8:42 3 7 mph 1006.3mb 38f 38f
8:36 6 8 mph 1006.3mb 38f 38f
8:30 6 8 mph 1006.4mb 38f 38f
8:24 6 9 mph 1006.5mb 38f 38f
8:18 7 9 mph 1006.4mb 38f 38f
8:12 8 10 mph 1006.5mb 38f 38f
8:06 7 9 mph 1006.4mb 38f 38f
8:00 8 9 mph 1006.4mb 38f 38f
7:54 8 9 mph 1006.3mb 38f 38f
7:48 7 8 mph 1006.3mb 38f 38f
7:42 7 8 mph 1006.3mb 38f 38f
7:36 6 8 mph 1006.2mb 38f 38f
7:30 7 8 mph 1006.1mb 38f 38f
7:24 7 8 mph 1005.9mb 38f 39f
7:18 5 7 mph 1005.9mb 38f 39f
7:12 2 3 mph 1005.8mb 38f 39f
7:06 3 5 mph 1005.8mb 38f 39f
7:00 3 5 mph 1005.8mb 38f 39f
6:54 3
mph
1005.7mb 38f 38f
6:48 2 3 mph 1005.6mb 38f -
6:42  -  1 mph 1005.4mb 38f -
6:36  -  2 mph 1005.4mb 38f -
6:30 2 6 mph 1005.4mb 38f 38f
6:24 6 8 mph 1005.6mb 38f 38f
6:18 6 7 mph 1005.7mb 38f 38f
6:12 6 7 mph 1005.6mb 38f 38f
6:06 6 8 mph 1005.6mb 38f 39f
6:00 3 6 mph 1005.5mb 38f 39f
5:54 3 6 mph 1005.4mb 38f 39f
5:48 3 6 mph 1005.4mb 38f -
5:42 3 6 mph 1005.2mb 38f -
5:36 3 6 mph 1005.2mb 38f -
5:30 1 3 mph 1005.1mb 38f 39f
5:24 1 3 mph 1005.1mb 38f 39f
5:18 1 2 mph 1005.1mb 38f 38f
5:12 2 3 mph 1005.2mb 38f 38f
5:06 2 3 mph 1005.2mb 38f 39f
5:00 2 3 mph 1005.3mb 38f 39f
4:54 2 5 mph 1005.1mb 38f 38f
4:48 2 5 mph 1005.1mb 38f 39f
4:42 3 6 mph 1005.2mb 38f 39f
4:36 3 6 mph 1005.3mb 38f 39f
4:30 5 7 mph 1005.2mb 38f 39f
4:24 5 7 mph 1005.1mb 38f 39f
4:18 7
mph
1005mb - -
4:12 7 8 mph 1004.8mb 38f 39f
4:06 7 8 mph 1004.7mb 38f 39f
4:00 6 7 mph 1004.8mb 38f 39f
3:54 5 7 mph 1004.8mb 38f 39f
3:48 6 8 mph 1004.8mb 38f 39f
3:42 5 6 mph 1004.8mb 38f 39f
3:36 5 6 mph 1004.9mb 38f 39f
3:30 3 6 mph 1004.9mb 38f 39f
3:24 3 5 mph 1004.9mb 38f 39f
3:18 2 6 mph 1005mb 38f 39f
3:12 5 7 mph 1005mb 38f 39f
3:06 3 7 mph 1004.9mb 38f 39f
3:00 7 8 mph 1004.9mb 38f 39f
2:54 6 7 mph 1004.9mb 38f 39f
2:48 5 6 mph 1004.8mb 38f 39f
2:42 6 7 mph 1004.8mb 38f 39f
2:36 6 8 mph 1004.8mb 38f 39f
2:30 7 8 mph 1004.9mb 38f 39f
2:24 7 8 mph 1004.9mb 38f 39f
2:18 5 6 mph 1004.9mb 38f 39f
2:12 6 8 mph 1004.9mb 38f 39f
2:06 6 8 mph 1004.9mb 38f 39f
2:00 6 8 mph 1004.9mb 38f 39f
1:54 7 8 mph 1004.9mb 38f 39f
1:48 6 7 mph - 38f 38f
1:42 6 7 mph - 38f 38f
1:36 5 6 mph - 38f 38f
1:30 6 7 mph 1004.9mb 38f 38f
1:24 5 6 mph 1005mb 38f 38f
1:18 5 6 mph 1005.1mb - -
1:12 3 5 mph 1005.1mb 38f 38f
1:06 5 6 mph 1005.1mb 38f 38f
1:00 5 6 mph 1005.1mb 38f 38f
12:54 6 7 mph 1005.2mb 38f 38f
12:48 6 8 mph 1005.3mb 38f 38f
12:42 6 8 mph 1005.3mb 38f 38f
12:36 6 8 mph 1005.4mb 38f 37f
12:30 7 8 mph 1005.5mb 38f 37f
12:24 7 8 mph 1005.7mb 38f 37f
12:18 7 8 mph 1005.8mb 38f 37f
12:12 6 7 mph 1005.9mb 38f 37f
12:06 6 7 mph 1006mb 38f 37f
12:00 6 7 mph 1006.3mb 38f 37f
11:54 6 8 mph 1006.4mb 38f 37f
11:48 6 7 mph 1006.5mb 38f 37f
11:42 6 7 mph 1006.7mb 38f 37f
11:36 6 7 mph 1006.8mb 38f 37f
11:30 6 8 mph 1006.9mb 38f 37f
11:24 6 8 mph 1007mb 38f 37f
11:18 6 8 mph 1007.2mb - -
11:12 6 7 mph 1007.4mb 38f 37f
11:06 7 9 mph 1007.5mb 38f 37f
11:00 7 9 mph 1007.6mb 38f 37f
10:54 7 9 mph 1007.8mb 38f 37f
10:48 7 9 mph - - -
10:42 6 9 mph 1008.1mb 38f 38f
10:36 3 7 mph 1008.2mb 38f 38f
10:30 6 7 mph 1008.3mb 38f 38f
10:24 3 6 mph 1008.4mb 38f 38f
10:18 5 6 mph 1008.5mb 38f 38f
10:12 3 7 mph 1008.6mb 38f 38f
10:06 6 9 mph 1008.6mb 38f 38f
10:00 6 7 mph 1008.6mb 38f 38f
9:54 5 7 mph 1008.6mb 38f 38f
9:48 3 6 mph 1008.6mb 38f 38f
9:42  -  5 mph 1008.6mb 38f 38f
9:36 3 6 mph 1008.6mb 38f 38f
9:30 3 6 mph 1008.7mb 38f 38f
9:24 1 3 mph 1008.7mb 38f 38f
9:18 1 3 mph 1008.7mb 38f 38f
9:12 2 6 mph 1008.8mb 38f 38f
9:06 1 5 mph 1008.8mb 38f 38f
9:00 1 5 mph 1008.8mb 38f 38f
8:54  -  3 mph 1008.9mb 38f 38f
8:48  -  2 mph 1008.9mb - -
8:42 2 6 mph 1008.9mb 38f 38f
8:36 2 5 mph 1009mb 38f 38f
8:30 3 6 mph 1008.9mb 38f 38f
8:24 3 6 mph 1008.9mb 38f 38f
8:18 3 6 mph 1008.9mb 38f 37f
8:12 2 3 mph 1008.9mb 38f 37f
8:06 2 3 mph 1008.9mb 38f 37f
8:00  -  1 mph 1008.9mb 38f 37f
7:54 2
mph
1009mb 38f 37f
7:48 2
mph
1009mb 38f 37f
7:42 2
mph
1009.1mb 38f 37f
7:36  -  2 mph 1009.1mb 38f 37f
7:30  -  2 mph 1009.2mb 38f 37f
7:24 3 6 mph 1009.2mb 38f 37f
7:18 3 6 mph 1009.3mb 38f 37f
7:12 3 5 mph 1009.3mb 38f 37f
7:06 5 7 mph 1009.3mb 38f 37f
7:00 5 7 mph 1009.2mb 38f 38f
6:54 3 7 mph 1009.3mb 38f 38f
6:48 3 5 mph 1009.3mb 38f 38f
6:42 2 3 mph 1009.3mb 38f 38f
6:36 2 3 mph 1009.3mb 38f 38f
6:30 1 3 mph 1009.4mb 38f 38f
6:24 1 3 mph 1009.4mb 38f 38f
6:18 2 3 mph 1009.4mb 37f 38f
6:12 2 7 mph 1009.4mb 37f 38f
6:06 2 7 mph 1009.4mb 37f 38f
6:00  -  2 mph 1009.4mb 37f 38f
5:54 1 5 mph 1009.3mb 37f 38f
5:48 6 8 mph 1009.3mb 37f 38f
5:42 6 8 mph 1009.5mb 37f 38f
5:36 3 5 mph 1009.6mb 38f 38f
5:30 3 6 mph 1009.7mb 38f 38f
5:24 2 6 mph 1009.8mb 38f 38f
5:18  -  1 mph 1010mb 38f 38f
5:12  -  1 mph 1010.1mb 38f 38f
5:06  -  1 mph 1010.1mb 38f 38f
5:00  -  2 mph 1010.2mb 38f 38f
4:54  -  2 mph 1010.2mb 38f 38f
4:48  -  1 mph 1010.2mb 38f 38f
4:42  -  2 mph 1010.2mb 38f 38f
4:36  -  2 mph 1010.2mb 38f 38f
4:30  -  2 mph 1010.2mb 38f 38f
4:24 3 7 mph 1010.2mb 38f 38f
4:18 6 8 mph 1010.2mb 38f 38f
4:12 5 8 mph 1010.4mb 38f 38f
4:06 1 5 mph 1010.5mb 38f 37f
4:00  -  1 mph 1010.5mb 38f 37f
3:54  -  1 mph 1010.5mb 38f 37f
3:48  -  2 mph 1010.5mb 38f 37f
3:42  -  2 mph 1010.5mb 38f 37f
3:36  -  3 mph 1010.6mb 38f 37f
3:30  -  3 mph 1010.6mb 38f 37f
3:24  -  2 mph 1010.8mb 38f 37f
3:18 2 3 mph 1010.8mb 38f 37f
3:12 1 3 mph 1010.8mb 38f 36f
3:06  -  1 mph 1010.9mb 38f 36f
3:00  -  1 mph 1010.9mb 38f 36f
2:54 1
mph
1010.9mb 38f 36f
2:48 1
mph
1011mb 38f 36f
2:42  -  1 mph 1011.1mb 38f 36f
2:36  -  2 mph 1011.2mb 38f 36f
2:30  -  2 mph 1011.3mb 38f 36f
2:24 2 3 mph 1011.5mb 38f 36f
2:18  -  1 mph 1011.4mb 38f 36f
2:12  -  1 mph 1011.4mb 38f 36f
2:06  -  mph 1011.4mb 38f 36f
2:00  -  3 mph 1011.4mb 38f 36f
1:54  -  3 mph 1011.4mb 38f 36f
1:48 3 5 mph 1011.4mb 38f 36f
1:42 3 5 mph 1011.5mb 38f 36f
1:36 3 5 mph 1011.7mb 38f 36f
1:30 2 5 mph 1011.9mb 38f 36f
1:24 3 5 mph 1012mb 38f 36f
1:18 2 3 mph 1011.9mb 38f 37f
1:12 2 3 mph 1011.9mb 38f 37f
1:06 3 5 mph 1011.8mb 38f 37f
1:00 2 5 mph 1011.8mb 38f 37f
12:54 5 7 mph 1011.8mb 38f 36f
12:48 5 7 mph 1011.9mb 38f -
12:42 2 5 mph 1011.9mb 38f -
12:36 2 3 mph 1011.8mb 38f -
12:30 3 5 mph 1011.9mb 38f 35f
12:24 1 3 mph 1011.9mb 38f 35f
12:18 2
mph
1012mb 38f 35f
12:12  -  2 mph 1012mb 38f 35f
12:06  -  2 mph 1012.1mb 38f 36f
12:00  -  2 mph 1012.1mb 38f 36f
vie 01/20 11:54  -  2 mph 1012.2mb 38f 36f
11:48  -  3 mph 1012mb 38f 35f
11:42 2 3 mph 1012mb 38f 36f
11:36 2
mph
1012.1mb 38f 36f
11:30 2
mph
1012.1mb 38f 35f
11:24  -  2 mph 1012.1mb 38f 35f
11:18  -  2 mph 1012.1mb 38f 35f
11:12  -  2 mph 1012.1mb 38f 35f
11:06  -  3 mph 1012.2mb 38f 36f
11:00 2
mph
1012.4mb 38f 36f
10:54 2 3 mph 1012.4mb 38f 35f
10:48 1 2 mph 1012.5mb 38f 35f
10:42 1 2 mph 1012.6mb 38f 35f
10:36  -  2 mph 1012.7mb 38f 35f
10:30  -  1 mph 1012.7mb 38f 35f
10:24  -  2 mph 1012.8mb 38f 35f
10:18  -  2 mph 1012.8mb 38f 35f
10:12 1 2 mph 1012.7mb 38f 35f
10:06  -  2 mph 1012.8mb 38f 35f
10:00  -  3 mph 1012.8mb 38f 35f
9:54 2 3 mph 1012.9mb 38f 35f
9:48 2 3 mph 1013mb 38f 35f
9:42  -  2 mph 1013.1mb 38f 35f
9:36  -  mph 1013.1mb 38f 35f
9:30  -  1 mph 1013.3mb 38f 35f
9:24  -  1 mph 1013.4mb 38f 35f
9:18  -  1 mph 1013.4mb 38f 35f
9:12  -  1 mph 1013.5mb 38f 35f
9:06  -  1 mph 1013.5mb 38f 35f
9:00  -  1 mph 1013.4mb 38f 35f
8:54  -  2 mph 1013.5mb 38f 35f
8:48  -  2 mph 1013.5mb 38f 35f
8:42 2 3 mph 1013.5mb 38f 35f
8:36  -  2 mph 1013.5mb 38f 35f
8:30 1 2 mph 1013.4mb 38f 35f
8:24 1 2 mph 1013.4mb 38f 35f
8:18 2
mph
1013.4mb 38f 36f
8:12  -  1 mph 1013.4mb 38f 35f
8:06 1 2 mph 1013.4mb 38f 35f
8:00 1 2 mph 1013.5mb 38f 35f
7:54  -  3 mph 1013.5mb 38f 35f
7:48  -  3 mph - 38f 35f
7:42 2 3 mph - 38f 35f
7:36  -  2 mph - 38f 35f
7:30 1 2 mph 1013.4mb 38f 35f
7:24 1 2 mph 1013.6mb 38f 35f
7:18  -  1 mph 1013.4mb 38f 35f
7:12  -  1 mph 1013.5mb 38f 35f
7:06  -  1 mph 1013.5mb 38f 35f
7:00  -  1 mph 1013.6mb 38f 35f
6:54  -  1 mph 1013.6mb 38f 35f
6:48  -  1 mph 1013.6mb 38f 35f
6:42  -  2 mph 1013.8mb 38f 36f
6:36  -  2 mph 1013.7mb 38f 35f
6:30  -  1 mph 1013.7mb 38f 36f
6:24  -  1 mph 1013.7mb 38f 36f
6:18  -  3 mph 1013.7mb 38f 36f
6:12  -  1 mph 1013.6mb 38f 36f
6:06  -  mph 1013.7mb 38f 36f
6:00  -  mph 1013.8mb 38f 36f
5:54  -  1 mph 1013.8mb 38f 36f
5:48 1 3 mph 1013.8mb 38f 36f
5:42 2 3 mph 1013.7mb 38f 36f
5:36 2 3 mph 1013.7mb 38f 36f
5:30 2 3 mph 1013.7mb 38f 36f
5:24  -  2 mph 1013.7mb 38f 36f
5:18 2
mph
1013.6mb 38f 36f
5:12  -  1 mph 1013.6mb 38f 36f
5:06  -  1 mph 1013.6mb 38f 36f
5:00 2 3 mph 1013.6mb 38f 36f
4:54 2 3 mph 1013.6mb 38f 36f
4:48 2 3 mph 1013.5mb 38f 36f
4:42 2 3 mph 1013.5mb 38f 36f
4:36 3
mph
1013.5mb 38f 37f
4:30 3
mph
1013.4mb 38f 37f
4:24 3 6 mph 1013.4mb 38f 37f
4:18 2 5 mph 1013.5mb 38f 37f
4:12 5
mph
1013.5mb 38f 37f
4:06 5
mph
1013.6mb 38f 37f
4:00 5 6 mph 1013.6mb 38f 37f
3:54 6
mph
1013.7mb 38f 37f
3:48 5 6 mph 1013.8mb 38f 37f
3:42 6 7 mph 1013.8mb 38f 37f
3:36 3 5 mph 1013.8mb 38f 37f
3:30 3 5 mph 1013.7mb 38f 37f
3:24 3 5 mph 1013.7mb 38f 37f
3:18 5
mph
1013.7mb 38f -
3:12 3 5 mph 1013.7mb 38f 37f
3:06 3 5 mph 1013.8mb 38f 37f
3:00 5 6 mph 1013.8mb 38f 37f
2:54 5 6 mph 1013.8mb 38f 37f
2:48 5 6 mph 1013.8mb 38f 37f
2:42 5 6 mph 1013.8mb 38f 37f
2:36 6
mph
1013.8mb 38f 37f
2:30 6
mph
1013.8mb 38f 37f
2:24 6 7 mph 1013.8mb 38f 37f
2:18 6 7 mph 1013.9mb 38f 37f
2:12 6
mph
1013.9mb 38f 37f
2:06 2 3 mph 1013.8mb 38f 37f
2:00 2 3 mph 1013.7mb 38f 37f
1:54 3 5 mph 1013.8mb 38f 37f
1:48 3 5 mph 1013.8mb 38f 37f
1:42 3 5 mph 1013.8mb 38f 37f
1:36 5 6 mph 1013.8mb 38f 37f
1:30 5 6 mph 1013.8mb 38f 36f
1:24 6
mph
1013.7mb 38f 36f
1:18 6
mph
1013.7mb 38f 36f
1:12 6
mph
1013.8mb 38f 36f
1:06 5 6 mph 1013.8mb 38f 36f
1:00 6
mph
1013.7mb 38f 36f
12:54 6
mph
1013.7mb 38f 36f
12:48 6
mph
1013.8mb 38f 36f
12:42 6
mph
1013.9mb 38f 35f
12:36 5 6 mph 1013.9mb 38f 35f
12:30 5 6 mph 1013.9mb 38f 35f
12:24 6
mph
1013.9mb 38f 35f
12:18 6 8 mph 1013.9mb 38f 35f
12:12 5 6 mph 1013.9mb 38f 36f
12:06 3 6 mph 1013.8mb 38f 36f
12:00 3 5 mph 1014mb 38f 36f
11:54 2 5 mph 1014mb 38f 36f
11:48 5 7 mph 1014.1mb 38f 36f
11:42 5 6 mph 1014.3mb 38f 35f
11:36 5 7 mph 1014.5mb 38f 35f
11:30 6 7 mph 1014.6mb 37f 35f
11:24 6 8 mph 1014.8mb 37f 35f
11:18 6 8 mph 1014.9mb 37f 35f
11:12 5 7 mph 1015mb 37f 35f
11:06 6 8 mph 1015.1mb 37f 35f
11:00 6 8 mph 1015.1mb 37f 35f
10:54 3 5 mph 1015.3mb 37f 35f
10:48 3 5 mph 1015.4mb 37f 35f
10:42 2 6 mph 1015.4mb 37f 35f
10:36 6 8 mph 1015.4mb 37f 35f
10:30 5 7 mph 1015.5mb 37f 35f
10:24 3 6 mph 1015.7mb 37f 35f
10:18 3 6 mph 1015.8mb 37f 35f
10:12 3 7 mph 1015.8mb 37f 35f
10:06 5 7 mph 1015.9mb 37f 35f
10:00 6 9 mph 1015.8mb 37f 35f
9:54 7 9 mph 1015.8mb 37f 35f
9:48 7 9 mph 1015.8mb 37f 35f
9:42 6 7 mph 1015.7mb 37f 35f
9:36 6 7 mph 1015.6mb 37f 35f
9:30 5 7 mph 1015.6mb 37f 35f
9:24 6 8 mph 1015.7mb 37f 35f
9:18 5 6 mph 1015.6mb 37f 35f
9:12 6 7 mph 1015.6mb 37f 35f
9:06 6 7 mph 1015.6mb 37f 35f
9:00 6 7 mph 1015.5mb 37f 34f
8:54 7 9 mph 1015.4mb 38f 35f
8:48 7 8 mph 1015.4mb 38f 35f
8:42 7 8 mph 1015.5mb 38f 34f
8:36 7 9 mph 1015.5mb 38f 35f
8:30 7 9 mph 1015.6mb 38f 34f
8:24 8 9 mph 1015.6mb 38f 34f
8:18 8 10 mph 1015.6mb 37f 35f
8:12 8 10 mph 1015.7mb 38f 35f
8:06 8 10 mph 1015.7mb 37f 35f
8:00 7 9 mph 1015.6mb 37f 34f
7:54 7 10 mph 1015.6mb 37f 34f
7:48 5 8 mph 1015.6mb 37f 34f
7:42 5 8 mph 1015.6mb 37f 34f
7:36 5 8 mph 1015.5mb 38f 34f
7:30 5 9 mph 1015.4mb 38f 34f
7:24 6 8 mph 1015.4mb 37f 34f
7:18 6 9 mph 1015.4mb 37f 34f
7:12 6 8 mph 1015.3mb 37f 34f
7:06 6 11 mph 1015.3mb 37f 34f
7:00 6 8 mph 1015.1mb 37f 34f
6:54 6 10 mph 1014.9mb 37f 34f
6:48 6 10 mph 1014.8mb 37f 34f
6:42 7 11 mph 1014.6mb 37f 34f
6:36 8 13 mph 1014.5mb 37f 34f
6:30 6 10 mph 1014.5mb 37f 34f
6:24 7 11 mph 1014.5mb 37f 34f
6:18 7 10 mph 1014.4mb 37f 34f
6:12 9 11 mph 1014.1mb 37f 34f
6:06 9 11 mph 1014mb 37f 34f
6:00 8 11 mph 1013.9mb 37f 34f
5:54 8 10 mph 1013.8mb 37f 34f
5:48 10 11 mph 1013.8mb 37f 34f
5:42 9 10 mph 1013.7mb 37f 34f
5:36 8 10 mph 1013.5mb 37f 34f
5:30 7 9 mph 1013.4mb 37f 34f
5:24 6 9 mph 1013.3mb 37f 34f
5:18 7 9 mph 1013.2mb 37f 33f
5:12 7 9 mph 1013.1mb 37f 33f
5:06 6 7 mph 1013.1mb 37f 33f
5:00 6 7 mph 1013.1mb 37f 33f
4:54 6 8 mph 1013mb 37f 33f
4:48 6 8 mph 1013mb 37f 33f
4:42 7 8 mph 1012.9mb 37f 33f
4:36 7 8 mph 1012.9mb 37f 33f
4:30 7 8 mph 1012.9mb 37f 33f
4:24 8 11 mph 1012.8mb 37f 34f
4:18 9 13 mph 1012.8mb 37f 34f
4:12 8 10 mph 1012.7mb 37f 34f
4:06 7 11 mph 1012.7mb 37f 34f
4:00 7 10 mph 1012.8mb 37f 34f
3:54 7 11 mph 1012.9mb 37f 34f
3:48 7 10 mph 1013mb 37f 34f
3:42 9 13 mph 1013.1mb 37f 34f
3:36 8 11 mph 1013.2mb 37f 34f
3:30 7 11 mph 1013.2mb 37f 34f
3:24 8 11 mph 1013.3mb 37f 34f
3:18 7 13 mph 1013.4mb 37f 34f
3:12 7 13 mph 1013.4mb 37f 34f
3:06 7 11 mph 1013.4mb 37f 34f
3:00 10 16 mph 1013.4mb 38f 35f
2:54 9 13 mph 1013.4mb 38f 34f
2:48 9 13 mph 1013.4mb 38f 34f
2:42 8 11 mph 1013.4mb 38f 34f
2:36 9 13 mph 1013.5mb 38f 34f
2:30 8 13 mph 1013.5mb 38f 34f
2:24 8 11 mph 1013.7mb 38f 34f
2:18 9 13 mph 1013.9mb 38f 35f
2:12 9 11 mph 1014mb 38f 34f
2:00 8 10 mph 1014.2mb 38f 34f
1:48 8 11 mph 1014.3mb 38f 34f
1:42 8 11 mph 1014.3mb 38f 34f
1:36 9 11 mph 1014.3mb 38f 34f
1:30 11 14 mph 1014.2mb 38f 34f
1:24 11 14 mph 1014.1mb 38f 35f
1:18 10 11 mph 1014mb 38f 35f
1:12 10 11 mph 1014mb 37f 35f
1:06 11 13 mph 1014.1mb 37f 35f
1:00 11 14 mph 1014.1mb 38f 35f
12:54 10 14 mph 1014.2mb 37f 35f
12:48 10 14 mph 1014.2mb 37f -
12:42 10 13 mph 1014.2mb 37f -
12:36 11 14 mph 1014.2mb 38f -
12:30 11 13 mph 1014.2mb 37f 34f
12:24 11 13 mph 1014.1mb 37f 34f
12:18 11 13 mph 1014.1mb 38f -
12:12 10 11 mph 1014.1mb 37f 34f
12:06 8 10 mph 1014.1mb 37f 34f
12:00 8 10 mph 1014mb 37f 34f
jue 01/19 11:54 11 14 mph 1013.9mb 37f 34f
11:48 10 11 mph 1013.8mb 37f 35f
11:42 10 13 mph 1013.8mb 37f 35f
11:36 10 11 mph 1013.7mb 37f 35f
11:30 10 11 mph 1013.7mb 37f 35f
11:24 9 11 mph 1013.7mb 37f 35f
11:18 9 13 mph 1013.8mb 37f 35f
11:12 10 11 mph 1013.8mb 37f 35f
11:06 10 13 mph 1013.8mb 37f 35f
11:00 10 13 mph 1013.7mb 37f 35f
10:54 10 11 mph 1013.7mb 37f 35f
10:48 10 11 mph 1013.8mb 37f 35f
10:42 9 10 mph 1013.9mb 37f 35f
10:36 9 11 mph 1013.9mb 37f 35f
10:30 9 11 mph 1013.9mb 37f 35f
10:24 9 11 mph 1013.9mb 37f 35f
10:18 9 10 mph 1013.9mb 37f 35f
10:12 9 10 mph 1013.9mb 38f 35f
10:06 8 10 mph 1014mb 37f 35f
10:00 8 10 mph 1013.8mb 37f 35f
9:54 8 10 mph 1013.8mb 37f 35f
9:48 8 10 mph 1013.8mb 37f 35f
9:42 8 10 mph 1013.7mb 38f 35f
9:36 8 11 mph 1013.7mb 37f 35f
9:30 7 10 mph 1013.7mb 37f 35f
9:24 7 10 mph 1013.7mb 37f 35f
9:18 7 8 mph 1013.7mb 37f 35f
9:12 6 8 mph 1013.7mb 37f 35f
9:06 5 8 mph 1013.6mb 37f 35f
9:00 6 8 mph 1013.6mb 37f 35f
8:54 6 9 mph 1013.6mb 37f 35f
8:48 7 9 mph 1013.5mb 37f 35f
8:42 8 11 mph 1013.4mb 37f 35f
8:36 8 11 mph 1013.4mb 37f 35f
8:30 9 11 mph 1013.4mb 37f 35f
8:24 9 11 mph 1013.4mb 37f 35f
8:18 6 8 mph 1013.3mb 37f 35f
8:12 6 8 mph 1013.3mb 37f 35f
8:06 6 7 mph 1013.2mb 37f 35f
8:00 6 7 mph 1013.2mb 37f 35f
7:54 7 9 mph 1013.1mb 38f 36f
7:48 6 8 mph 1013mb 38f 36f
7:42 7 10 mph 1013mb 38f 36f
7:36 9 13 mph 1012.9mb 38f 36f
7:30 9 14 mph 1012.9mb 38f 36f
7:24 9 14 mph 1012.9mb 38f 36f
7:18 8 13 mph 1012.8mb 38f 36f
7:12 8 11 mph 1012.9mb 38f 36f
7:06 7 11 mph 1012.9mb 38f 36f
7:00 8 11 mph 1012.9mb 38f 37f
6:54 7 9 mph 1012.8mb 38f 36f
6:48 7 9 mph 1012.8mb 38f 36f
6:42 7 9 mph 1012.8mb 38f 36f
6:36 6 7 mph 1012.8mb 38f 36f
6:30 7 8 mph 1012.8mb 38f 35f
6:24 7 8 mph 1012.8mb 38f 36f
6:18 6 7 mph 1012.7mb 38f 35f
6:12 6 7 mph 1012.5mb 38f 36f
6:06 6 7 mph 1012.4mb 38f 35f
6:00 7
mph
1012.3mb 38f 35f
5:54 7
mph
1012.3mb 38f 35f
5:48 6 7 mph 1012.3mb 38f 35f
5:42 3 5 mph 1012.3mb 37f 35f
5:36 3 5 mph 1012.2mb 38f 34f
5:30 3 5 mph 1012.2mb 38f 34f
5:24 5 6 mph 1012.2mb 38f 34f
5:18 5
mph
1012.1mb 38f 35f
5:12 5
mph
1012.1mb 38f 35f
5:06 3 5 mph 1012mb 38f 35f
5:00 3 5 mph 1012mb 37f 34f
4:54 2 3 mph 1011.9mb 38f 35f
4:48 3
mph
1011.8mb 38f 35f
4:42 2 3 mph 1011.8mb 38f 35f
4:36 2 3 mph 1011.7mb 38f 35f
4:30 3
mph
1011.8mb 38f 35f
4:24 3
mph
1011.8mb 38f 35f
4:18 3
mph
1011.8mb 38f -
4:12 3
mph
1011.7mb 38f 35f
4:06 2 3 mph 1011.6mb 38f 35f
4:00 2 3 mph 1011.6mb 38f 36f
3:54 3 5 mph 1011.6mb 38f 36f
3:48 3 6 mph 1011.6mb 38f 36f
3:42 6 7 mph 1011.5mb 38f 36f
3:36 7 8 mph 1011.6mb 38f 37f
3:30 7 9 mph 1011.5mb 38f 37f
3:24 7 9 mph 1011.4mb 38f 37f
3:18 8 10 mph 1011.3mb 38f 36f
3:12 9 10 mph 1011.3mb 38f 36f
3:06 9 10 mph 1011.4mb 38f 36f
3:00 8 10 mph 1011.3mb 38f 36f
2:54 9 10 mph 1011.4mb 37f 36f
2:48 8 10 mph 1011.3mb 37f 36f
2:42 9 11 mph 1011.4mb 37f 35f
2:36 7 10 mph 1011.4mb 37f 36f
2:30 9 11 mph 1011.4mb 37f 35f
2:24 9 11 mph 1011.5mb 38f 35f
2:18 9 13 mph 1011.6mb 37f 35f
2:12 8 13 mph 1011.6mb 37f 35f
2:06 9 11 mph 1011.6mb 37f 35f
2:00 8 13 mph 1011.5mb 38f 35f
1:54 9 14 mph 1011.5mb 38f 35f
1:48 10 13 mph 1011.5mb 38f 35f
1:42 10 13 mph 1011.5mb 38f 36f
1:36 7 10 mph 1011.6mb 38f 36f
1:30 9 13 mph 1011.5mb 37f 36f
1:24 9 13 mph 1011.5mb 37f 36f
1:18 5 11 mph 1011.5mb 37f 36f
1:12 5 7 mph 1011.6mb 37f 36f
1:06 2 5 mph 1011.6mb 37f 35f
1:00 1 5 mph 1011.6mb 37f 34f
12:54 3 6 mph 1011.7mb 37f 33f
12:48 5 7 mph 1011.6mb 37f 33f
12:42 3 5 mph 1011.7mb 37f 33f
12:36 3 5 mph 1011.7mb 37f 33f
12:30 2 5 mph 1011.7mb 37f 33f
12:24 3 5 mph 1011.7mb 37f 33f
12:18 3
mph
1011.7mb 37f 33f
12:12 1 3 mph 1011.7mb 37f 33f
12:06 2 3 mph 1011.9mb 37f 33f
12:00 2 5 mph 1012mb 37f 33f
11:54 5 6 mph 1012.1mb 37f 33f
11:48 6 7 mph 1012.2mb 37f 33f
11:42 6
mph
1012.2mb 37f 33f
11:36 3 5 mph 1012.3mb 37f 33f
11:30 2 3 mph 1012.5mb 37f 33f
11:24 2 3 mph 1012.5mb 37f 33f
11:18 2 3 mph 1012.6mb 37f 33f
11:12 2 3 mph 1012.7mb 37f 33f
11:06 2 5 mph 1012.9mb 37f 33f
11:00 2 3 mph 1013mb 37f 33f
10:54 2 3 mph 1013mb 37f 33f
10:48 3 6 mph 1013.1mb 37f 33f
10:42 3 5 mph 1013.2mb 37f 33f
10:36 3 5 mph 1013.3mb 37f 33f
10:30 2 3 mph 1013.4mb 37f 33f
10:24 2 3 mph 1013.5mb 37f 33f
10:18 1 5 mph 1013.6mb 37f 33f
10:12 3 5 mph 1013.7mb 37f 33f
10:06 3
mph
1013.9mb 37f 33f
10:00  -  3 mph 1014mb 37f 33f
9:54 2 5 mph 1014mb 37f 33f
9:48 3 5 mph 1014.1mb 37f 33f
9:42 3 5 mph 1014.1mb 37f 33f
9:36 2 3 mph 1014.2mb 37f 32f
9:30 1 2 mph 1014.3mb 37f 32f
9:24  -  1 mph 1014.3mb 37f 32f
9:18  -  1 mph 1014.2mb 37f 32f
9:12  -  mph 1014.4mb 37f 32f
9:06 1 2 mph 1014.3mb 37f 32f
9:00 1 3 mph 1014.2mb 37f 31f
8:54 2 3 mph 1014.3mb 37f 31f
8:48 2
mph
1014.4mb 37f 31f
8:42  -  1 mph 1014.4mb 37f 31f
8:36  -  2 mph 1014.4mb 37f 31f
8:30  -  2 mph 1014.5mb 37f 31f
8:24  -  1 mph 1014.5mb 37f 31f
8:18  -  1 mph 1014.4mb 37f 31f
8:12 1
mph
1014.4mb 37f 31f
8:06 1
mph
1014.4mb 37f 31f
8:00 2
mph
1014.3mb 37f 31f
7:54  -  1 mph 1014.4mb 37f 30f
7:48  -  1 mph 1014.4mb 37f 30f
7:42  -  mph 1014.4mb 37f 30f
7:36  -  1 mph 1014.5mb 37f 30f
7:30 1 2 mph 1014.4mb 37f 30f
7:24  -  2 mph 1014.4mb 37f 30f
7:18  -  1 mph 1014.5mb 37f 30f
7:12 1
mph
1014.5mb 37f 30f
7:06  -  mph 1014.5mb 37f 29f
7:00  -  1 mph 1014.4mb 37f 29f
6:54  -  1 mph 1014.5mb 37f 29f
6:48  -  1 mph 1014.5mb 37f 29f
6:42 1 2 mph 1014.4mb 37f 29f
6:36 2
mph
1014.4mb 37f 29f
6:30  -  1 mph 1014.5mb 37f 29f
6:24  -  2 mph 1014.6mb 37f 29f
6:18 2
mph
1014.6mb 37f 29f
6:12 1 2 mph 1014.6mb 37f 29f
6:06 2
mph
1014.6mb 37f 29f
6:00 1 2 mph 1014.6mb 37f 29f
5:54  -  1 mph 1014.6mb 37f 29f
5:48  -  1 mph 1014.4mb 37f 29f
5:42  -  1 mph 1014.4mb 37f 29f
5:36  -  1 mph 1014.4mb 37f 29f
5:30  -  mph 1014.4mb 37f 29f
5:24  -  mph 1014.5mb 37f 29f
5:18  -  1 mph 1014.5mb 37f 29f
5:12 1 2 mph 1014.6mb 37f 28f
5:06 1 2 mph 1014.6mb 37f 28f
5:00 1 2 mph 1014.6mb 37f 28f
4:54 2
mph
1014.6mb 37f 28f
4:48  -  1 mph 1014.5mb 37f 29f
4:42  -  mph 1014.6mb 37f 28f
4:36  -  mph 1014.5mb 37f 28f
4:30  -  mph 1014.6mb 37f 28f
4:24  -  1 mph 1014.6mb 37f 28f
4:18  -  mph 1014.7mb 37f 28f
4:12  -  1 mph 1014.8mb 37f 28f
4:06 1
mph
1014.8mb 37f 28f
4:00  -  mph 1014.8mb 37f 28f
3:54  -  1 mph 1014.9mb 37f 28f
3:48  -  1 mph 1015mb 37f 28f
3:42 1 2 mph 1015.2mb 37f 28f
3:36  -  2 mph 1015.2mb 37f 28f
3:30  -  1 mph 1015.3mb 37f 28f
3:24  -  2 mph 1015.3mb 37f 28f
3:18  -  1 mph 1015.3mb 37f 28f
3:12  -  1 mph 1015.4mb 37f 29f
3:06  -  2 mph 1015.4mb 37f 28f
3:00 1 2 mph 1015.4mb 37f 28f
2:54 1 3 mph 1015.4mb 37f 28f
2:48 2 3 mph 1015.5mb 37f 28f
2:42 2 5 mph 1015.4mb 37f 29f
2:36 5 6 mph 1015.3mb 37f 29f
2:30 3 6 mph 1015.3mb 37f 29f
2:24 5
mph
1015.4mb 37f 29f
2:18 3
mph
1015.4mb 37f 29f
2:12 2 3 mph 1015.4mb 37f 29f
2:06 2 3 mph 1015.4mb 37f 29f
2:00 5
mph
1015.3mb 37f 29f
1:54 2 5 mph 1015.4mb 37f 29f
1:48 3 6 mph 1015.5mb 37f 29f
1:42 3 5 mph 1015.6mb 37f 29f
1:36 2 5 mph 1015.6mb 37f 29f
1:30 3 5 mph 1015.8mb 37f 29f
1:24 3 5 mph 1015.8mb 37f 29f
1:18 3 5 mph 1016mb 37f 29f
1:12 5 6 mph 1016.1mb 37f 29f
1:06 5 6 mph 1016.2mb 37f 29f
1:00 5 6 mph 1016.2mb 37f 29f
12:54 3 5 mph 1016.1mb 37f 29f
12:48 3 5 mph 1016.1mb - -
12:42 3 5 mph 1016.1mb - -
12:36 3 5 mph 1016.2mb - -
12:30 3 5 mph 1016mb 37f 29f
12:24 3 5 mph 1016mb 37f 29f
12:18 2 3 mph 1016mb 37f 29f
12:12 2 5 mph 1016.1mb 37f 29f
12:06 3 6 mph 1016.1mb 37f 29f
12:00 5 7 mph 1016.1mb 37f 29f
mié 01/18 11:54 6 7 mph 1016.2mb 37f 29f
11:48 6 7 mph 1016.2mb 37f 29f
11:42 6 8 mph 1016.4mb 37f 29f
11:36 6 8 mph 1016.5mb 37f 29f
11:30 6 8 mph 1016.6mb 37f 29f
11:24 6 9 mph 1016.6mb 37f 29f
11:18 6 7 mph 1016.7mb 37f 29f
11:12 3 6 mph 1016.8mb 37f 29f
11:06 5 6 mph 1016.8mb 37f 29f
11:00 5 6 mph 1016.8mb 37f 29f
10:54 3 6 mph 1016.9mb 37f 29f
10:48 5 6 mph 1016.8mb 37f 29f
10:42 5 7 mph 1016.8mb 37f 29f
10:36 5 6 mph 1016.9mb 37f 29f
10:30 2 5 mph 1017.1mb 37f 29f
10:24 2 3 mph 1017.2mb 37f 29f
10:18 2 3 mph 1017.3mb 37f 29f
10:12 2 5 mph 1017.4mb 37f 29f
10:06  -  2 mph 1017.4mb 36f 29f
10:00  -  3 mph 1017.4mb 36f 29f
9:54 2 5 mph 1017.4mb 36f 29f
9:48 1 3 mph 1017.5mb 36f 29f
9:42 2 3 mph 1017.5mb 36f 29f
9:36 1 3 mph 1017.6mb 36f 28f
9:30 1 3 mph 1017.7mb 36f 29f
9:24 1 5 mph 1017.7mb 36f 29f
9:18 3 6 mph 1017.7mb 36f 29f
9:12 2 5 mph 1017.8mb 36f 29f
9:06 1 3 mph 1017.8mb 36f 29f
9:00 1 5 mph 1018mb 36f 28f
8:54 2 5 mph 1018mb 36f 28f
8:48 2 6 mph 1018mb 36f 28f
8:42 5 6 mph 1018mb 36f 28f
8:36 7 9 mph 1018mb 36f 28f
8:30 7 9 mph 1018.1mb 36f 28f
8:24 5 7 mph 1018.1mb 36f 28f
8:18 6 8 mph 1018.2mb 36f 28f
8:12 5 9 mph 1018.3mb 36f 28f
8:06 7 9 mph 1018.4mb 36f 28f
8:00 7 10 mph 1018.4mb 36f 28f
7:54 9 10 mph 1018.4mb 36f 28f
7:48 7 11 mph 1018.5mb 36f 28f
7:42 7 9 mph 1018.6mb 36f 28f
7:36 8 11 mph 1018.7mb 36f 28f
7:30 9 11 mph 1018.7mb 36f 28f
7:24 10 11 mph 1018.8mb 37f 28f
7:18 9 11 mph 1018.9mb 37f 28f
7:12 9 13 mph 1018.9mb 37f 28f
7:06 10 13 mph 1018.9mb 37f 28f
7:00 10 13 mph 1019mb 36f 28f
6:54 11 14 mph 1019mb 36f 28f
6:48 11 14 mph 1019mb 37f 28f
6:42 9 13 mph 1019mb 36f 28f
6:36 10 14 mph 1019mb 36f 28f
6:30 9 13 mph 1019mb 36f 28f
6:24 10 14 mph 1018.9mb 37f 28f
6:18 11 13 mph 1018.9mb 37f 28f
6:12 10 14 mph 1018.9mb 37f 28f
6:06 9 14 mph 1019mb 37f 28f
6:00 11 14 mph 1018.8mb 37f 28f
5:54 10 15 mph 1018.9mb 37f 28f
5:48 11 14 mph 1018.8mb 37f 28f
5:42 11 15 mph 1018.8mb 36f 28f
5:36 11 15 mph 1018.8mb 36f 28f
5:30 11 18 mph 1018.7mb 36f 28f
5:24 13 17 mph 1018.7mb 36f 28f
5:18 13 16 mph 1018.8mb 36f 28f
5:12 11 16 mph 1018.8mb 36f 29f
5:06 13 16 mph 1018.8mb 36f 28f
5:00 11 14 mph 1018.7mb 37f 28f
4:54 11 14 mph 1018.7mb 36f 28f
4:48 13 16 mph 1018.7mb 36f 28f
4:42 11 14 mph 1018.6mb 36f 29f
4:36 13 15 mph 1018.6mb 37f 28f
4:30 11 15 mph 1018.5mb 37f 28f
4:24 13 15 mph 1018.6mb 37f 28f
4:18 13 15 mph 1018.6mb 37f 28f
4:12 13 16 mph 1018.6mb 37f 29f
4:06 14 16 mph 1018.6mb 37f 28f
4:00 14 17 mph 1018.6mb 37f 29f
3:54 16 18 mph 1018.6mb 37f 28f
3:48 15 18 mph 1018.6mb 37f 28f
3:42 15 18 mph 1018.7mb 37f 28f
3:36 13 17 mph 1018.7mb 37f 29f
3:30 14 17 mph 1018.7mb 37f 29f
3:24 13 17 mph 1018.8mb 37f 28f
3:18 14 16 mph 1018.9mb 37f 28f
3:12 14 17 mph 1018.9mb 37f 28f
3:06 10 15 mph 1019mb 37f 29f
3:00 13 15 mph 1019.3mb 37f 29f
2:54 11 15 mph 1019.2mb 37f 29f
2:48 13 15 mph 1019.1mb 37f 28f
2:42 11 15 mph 1019mb 37f 29f
2:36 11 15 mph 1019mb 37f 29f
2:30 11 18 mph 1019mb 36f 29f